Time;durP1;ratioP1;P1;durP2;ratioP2;P2;SDS_P1;SDS_P2;PMS_P1;PMS_P2;Temp;Humidity;BMP_temperature;BMP_pressure;BME280_temperature;BME280_humidity;BME280_pressure;Samples;Min_cycle;Max_cycle;Signal;HPM_P1;HPM_P2
2024/01/06 00:01:45;;;;;;;;;;;15.70;73.30;;;;;;6216636;23;19904;-74
2024/01/06 00:04:10;;;;;;;;;;;15.60;73.50;;;;;;6216682;23;19950;-74
2024/01/06 00:06:36;;;;;;;;;;;15.60;73.30;;;;;;6216604;23;20320;-74
2024/01/06 00:09:01;;;;;;;;;;;15.90;73.70;;;;;;6216637;23;19903;-73
2024/01/06 00:11:27;;;;;;;;;;;15.70;73.40;;;;;;6216503;23;19904;-74
2024/01/06 00:13:52;;;;;;;;;;;15.70;73.40;;;;;;6216739;23;20294;-75
2024/01/06 00:16:18;;;;;;;;;;;15.70;73.40;;;;;;6216695;23;19923;-74
2024/01/06 00:18:44;;;;;;;;;;;15.70;73.20;;;;;;6216388;23;19916;-75
2024/01/06 00:21:10;;;;;;;;;;;15.70;73.40;;;;;;6216585;23;19980;-75
2024/01/06 00:23:35;;;;;;;;;;;15.60;73.30;;;;;;6216484;23;19903;-74
2024/01/06 00:26:01;;;;;;;;;;;15.70;73.20;;;;;;6216349;23;19912;-74
2024/01/06 00:28:27;;;;;;;;;;;15.60;73.20;;;;;;6216495;23;19903;-74
2024/01/06 00:30:53;;;;;;;;;;;15.70;73.30;;;;;;6217094;23;19911;-73
2024/01/06 00:33:18;;;;;;;;;;;15.60;73.10;;;;;;6217049;23;19958;-73
2024/01/06 00:35:44;;;;;;;;;;;15.60;73.50;;;;;;6216441;23;19911;-73
2024/01/06 00:38:09;;;;;;;;;;;15.70;73.30;;;;;;6214805;23;19904;-73
2024/01/06 00:40:35;;;;;;;;;;;15.60;72.30;;;;;;6216346;23;19908;-72
2024/01/06 00:43:00;;;;;;;;;;;15.60;73.10;;;;;;6216529;23;19990;-75
2024/01/06 00:45:26;;;;;;;;;;;15.60;73.10;;;;;;6216242;23;19912;-74
2024/01/06 00:47:51;;;;;;;;;;;15.60;72.90;;;;;;6216442;23;20400;-74
2024/01/06 00:50:19;;;;;;;;;;;15.60;73.10;;;;;;6214613;23;19904;-75
2024/01/06 00:52:45;;;;;;;;;;;15.70;73.10;;;;;;6216109;23;19904;-75
2024/01/06 00:55:11;;;;;;;;;;;15.60;72.70;;;;;;6216539;23;19904;-74
2024/01/06 00:57:37;;;;;;;;;;;15.60;72.80;;;;;;6216433;23;19904;-75
2024/01/06 01:00:05;;;;;;;;;;;15.90;73.00;;;;;;6217348;23;20019;-73
2024/01/06 01:02:33;;;;;;;;;;;15.50;72.60;;;;;;6215981;23;19904;-74
2024/01/06 01:04:59;;;;;;;;;;;15.60;73.00;;;;;;6226071;23;19915;-73
2024/01/06 01:07:24;;;;;;;;;;;15.60;73.10;;;;;;6215949;23;20382;-73
2024/01/06 01:09:50;;;;;;;;;;;15.50;72.90;;;;;;6216005;23;19911;-75
2024/01/06 01:12:15;;;;;;;;;;;15.60;72.80;;;;;;6216109;23;19904;-75
2024/01/06 01:14:41;;;;;;;;;;;15.60;73.00;;;;;;6215889;23;19904;-75
2024/01/06 01:17:06;;;;;;;;;;;13.70;71.80;;;;;;6214372;23;19903;-75
2024/01/06 01:19:32;;;;;;;;;;;15.50;72.60;;;;;;6215791;23;19965;-75
2024/01/06 01:21:57;;;;;;;;;;;15.60;73.00;;;;;;6215884;23;19971;-75
2024/01/06 01:24:23;;;;;;;;;;;15.60;72.80;;;;;;6215863;23;19904;-75
2024/01/06 01:26:48;;;;;;;;;;;15.50;72.60;;;;;;6215783;23;19914;-74
2024/01/06 01:29:14;;;;;;;;;;;15.60;73.20;;;;;;6216448;23;19927;-73
2024/01/06 01:31:39;;;;;;;;;;;15.60;72.80;;;;;;6215774;23;19931;-73
2024/01/06 01:34:05;;;;;;;;;;;14.80;72.30;;;;;;6215796;23;19989;-72
2024/01/06 01:36:30;;;;;;;;;;;13.60;71.80;;;;;;6215809;23;20242;-73
2024/01/06 01:38:56;;;;;;;;;;;15.50;72.50;;;;;;6215882;23;19911;-75
2024/01/06 01:41:21;;;;;;;;;;;15.50;72.50;;;;;;6215724;23;20262;-75
2024/01/06 01:43:47;;;;;;;;;;;15.50;72.70;;;;;;6215657;23;19991;-75
2024/01/06 01:46:13;;;;;;;;;;;15.60;72.60;;;;;;6215598;23;20316;-75
2024/01/06 01:48:38;;;;;;;;;;;15.50;72.30;;;;;;6214156;23;19908;-74
2024/01/06 01:51:04;;;;;;;;;;;15.30;72.40;;;;;;6213943;23;19950;-74
2024/01/06 01:53:31;;;;;;;;;;;15.50;72.60;;;;;;6215847;23;19911;-75
2024/01/06 01:55:57;;;;;;;;;;;15.50;72.50;;;;;;6216148;23;20263;-75
2024/01/06 01:58:23;;;;;;;;;;;15.60;72.80;;;;;;6216173;23;19950;-73
2024/01/06 02:00:49;;;;;;;;;;;15.50;72.30;;;;;;6215456;23;19904;-73
2024/01/06 02:03:15;;;;;;;;;;;15.50;72.00;;;;;;6215511;23;19911;-73
2024/01/06 02:05:40;;;;;;;;;;;15.50;72.40;;;;;;6214855;23;19999;-73
2024/01/06 02:08:06;;;;;;;;;;;15.50;72.80;;;;;;6215538;23;19922;-73
2024/01/06 02:10:31;;;;;;;;;;;15.50;72.50;;;;;;6215581;23;19995;-73
2024/01/06 02:13:06;;;;;;;;;;;15.50;72.20;;;;;;6215994;23;19935;-73
2024/01/06 02:15:32;;;;;;;;;;;15.40;72.50;;;;;;6225660;23;19957;-73
2024/01/06 02:17:58;;;;;;;;;;;15.40;72.50;;;;;;6225332;23;20188;-73
2024/01/06 02:20:24;;;;;;;;;;;15.40;72.40;;;;;;6215116;23;19916;-73
2024/01/06 02:22:50;;;;;;;;;;;15.40;72.50;;;;;;6215366;23;20447;-73
2024/01/06 02:25:18;;;;;;;;;;;15.40;72.50;;;;;;6215992;23;19919;-73
2024/01/06 02:27:43;;;;;;;;;;;15.40;72.80;;;;;;6215379;23;20336;-74
2024/01/06 02:30:10;;;;;;;;;;;15.40;72.60;;;;;;6215506;23;19958;-73
2024/01/06 02:32:35;;;;;;;;;;;15.40;71.80;;;;;;6215860;23;19930;-73
2024/01/06 02:35:01;;;;;;;;;;;15.40;73.10;;;;;;6215796;23;19903;-73
2024/01/06 02:37:27;;;;;;;;;;;15.40;72.80;;;;;;6215534;23;19904;-75
2024/01/06 02:39:53;;;;;;;;;;;15.40;72.50;;;;;;6215280;23;19904;-75
2024/01/06 02:42:19;;;;;;;;;;;15.40;72.80;;;;;;6215518;23;19958;-75
2024/01/06 02:44:45;;;;;;;;;;;15.40;72.80;;;;;;6215559;23;19912;-75
2024/01/06 02:47:11;;;;;;;;;;;15.30;72.70;;;;;;6215755;23;20270;-75
2024/01/06 02:49:37;;;;;;;;;;;15.40;72.90;;;;;;6215220;23;19951;-75
2024/01/06 02:52:02;;;;;;;;;;;15.40;73.20;;;;;;6215090;23;19911;-75
2024/01/06 02:54:28;;;;;;;;;;;15.40;72.60;;;;;;6215668;23;19916;-75
2024/01/06 02:56:53;;;;;;;;;;;15.40;73.10;;;;;;6215043;23;19978;-75
2024/01/06 02:59:19;;;;;;;;;;;15.30;72.80;;;;;;6215028;23;19904;-75
2024/01/06 03:01:44;;;;;;;;;;;15.40;72.40;;;;;;6215050;23;19904;-75
2024/01/06 03:04:10;;;;;;;;;;;15.30;72.80;;;;;;6213452;23;19911;-71
2024/01/06 03:06:35;;;;;;;;;;;15.40;72.80;;;;;;6214950;23;19912;-75
2024/01/06 03:09:00;;;;;;;;;;;15.40;72.80;;;;;;6213467;23;19911;-75
2024/01/06 03:11:26;;;;;;;;;;;15.40;72.90;;;;;;6213443;23;19927;-74
2024/01/06 03:13:51;;;;;;;;;;;15.30;72.50;;;;;;6214930;23;19908;-75
2024/01/06 03:16:17;;;;;;;;;;;15.30;73.00;;;;;;6215453;23;19911;-74
2024/01/06 03:18:42;;;;;;;;;;;15.30;72.70;;;;;;6214643;23;19958;-75
2024/01/06 03:21:20;;;;;;;;;;;15.30;73.00;;;;;;6213236;23;19961;-76
2024/01/06 03:23:49;;;;;;;;;;;15.40;67.50;;;;;;6214974;23;19903;-75
2024/01/06 03:26:14;;;;;;;;;;;15.30;72.70;;;;;;6214800;23;19913;-75
2024/01/06 03:28:40;;;;;;;;;;;15.30;72.50;;;;;;6214799;23;19915;-74
2024/01/06 03:31:05;;;;;;;;;;;15.30;72.60;;;;;;6214718;23;19904;-75
2024/01/06 03:33:31;;;;;;;;;;;15.30;72.40;;;;;;6214761;23;19904;-74
2024/01/06 03:35:56;;;;;;;;;;;15.30;72.50;;;;;;6214707;23;19904;-75
2024/01/06 03:38:22;;;;;;;;;;;15.30;72.80;;;;;;6214744;23;19986;-74
2024/01/06 03:40:47;;;;;;;;;;;15.30;72.80;;;;;;6215348;23;19958;-73
2024/01/06 03:43:13;;;;;;;;;;;15.30;72.80;;;;;;6214668;23;19904;-73
2024/01/06 03:45:38;;;;;;;;;;;15.30;72.90;;;;;;6214677;23;19919;-72
2024/01/06 03:48:04;;;;;;;;;;;15.20;73.00;;;;;;6213126;23;19939;-73
2024/01/06 03:50:30;;;;;;;;;;;15.30;71.60;;;;;;6215389;23;20292;-73
2024/01/06 03:52:55;;;;;;;;;;;15.30;72.60;;;;;;6214752;23;19927;-72
2024/01/06 03:55:21;;;;;;;;;;;15.30;72.70;;;;;;6214641;23;19904;-72
2024/01/06 03:57:46;;;;;;;;;;;15.20;72.60;;;;;;6214815;23;20295;-73
2024/01/06 04:00:12;;;;;;;;;;;15.30;72.50;;;;;;6214680;23;19904;-73
2024/01/06 04:02:37;;;;;;;;;;;15.20;72.40;;;;;;6214600;23;19910;-72
2024/01/06 04:05:05;;;;;;;;;;;15.30;72.90;;;;;;6214611;23;19912;-73
2024/01/06 04:07:30;;;;;;;;;;;15.30;71.80;;;;;;6214814;23;19904;-72
2024/01/06 04:09:56;;;;;;;;;;;15.20;72.50;;;;;;6215900;23;19958;-74
2024/01/06 04:12:22;;;;;;;;;;;15.20;72.80;;;;;;6214858;23;20319;-74
2024/01/06 04:14:47;;;;;;;;;;;15.10;72.70;;;;;;6214622;23;19915;-74
2024/01/06 04:17:13;;;;;;;;;;;15.30;72.80;;;;;;6214565;23;19911;-75
2024/01/06 04:19:38;;;;;;;;;;;15.00;72.40;;;;;;6212775;23;20003;-74
2024/01/06 04:22:04;;;;;;;;;;;15.20;72.70;;;;;;6214557;23;19927;-74
2024/01/06 04:24:30;;;;;;;;;;;15.20;72.10;;;;;;6214530;23;19908;-75
2024/01/06 04:26:55;;;;;;;;;;;15.20;72.20;;;;;;6214665;23;19903;-74
2024/01/06 04:29:21;;;;;;;;;;;15.30;72.60;;;;;;6216005;23;19932;-74
2024/01/06 04:31:46;;;;;;;;;;;15.20;72.60;;;;;;6216481;23;19908;-74
2024/01/06 04:34:12;;;;;;;;;;;15.10;72.60;;;;;;6216400;23;19911;-74
2024/01/06 04:36:37;;;;;;;;;;;15.10;72.60;;;;;;6216389;23;20373;-74
2024/01/06 04:39:03;;;;;;;;;;;15.20;72.40;;;;;;6216972;23;19910;-74
2024/01/06 04:41:28;;;;;;;;;;;15.10;72.60;;;;;;6216277;23;19908;-74
2024/01/06 04:43:54;;;;;;;;;;;15.20;72.60;;;;;;6216218;23;19935;-74
2024/01/06 04:46:19;;;;;;;;;;;15.20;72.60;;;;;;6216080;23;19935;-74
2024/01/06 04:48:45;;;;;;;;;;;15.10;72.30;;;;;;6216423;23;19939;-73
2024/01/06 04:51:11;;;;;;;;;;;15.20;72.50;;;;;;6216282;23;19904;-73
2024/01/06 04:53:36;;;;;;;;;;;15.20;72.30;;;;;;6216312;23;19904;-73
2024/01/06 04:56:02;;;;;;;;;;;15.10;72.20;;;;;;6216107;23;19947;-73
2024/01/06 04:58:27;;;;;;;;;;;15.10;72.00;;;;;;6216061;23;19919;-73
2024/01/06 05:00:53;;;;;;;;;;;15.10;72.40;;;;;;6214519;23;20344;-72
2024/01/06 05:03:19;;;;;;;;;;;15.00;72.30;;;;;;6215932;23;19958;-73
2024/01/06 05:05:45;;;;;;;;;;;15.10;72.20;;;;;;6217133;23;19999;-73
2024/01/06 05:08:10;;;;;;;;;;;15.10;71.90;;;;;;6216702;23;19938;-72
2024/01/06 05:10:36;;;;;;;;;;;14.70;72.20;;;;;;6216194;23;19904;-73
2024/01/06 05:13:02;;;;;;;;;;;15.10;72.20;;;;;;6216470;23;19910;-74
2024/01/06 05:15:28;;;;;;;;;;;15.10;72.00;;;;;;6216360;23;19907;-73
2024/01/06 05:17:54;;;;;;;;;;;15.10;72.30;;;;;;6216214;23;19904;-74
2024/01/06 05:20:22;;;;;;;;;;;15.10;71.90;;;;;;6215055;23;20122;-75
2024/01/06 05:22:48;;;;;;;;;;;15.20;72.00;;;;;;6216246;23;19991;-74
2024/01/06 05:25:14;;;;;;;;;;;15.10;72.30;;;;;;6216134;23;19959;-74
2024/01/06 05:27:40;;;;;;;;;;;15.10;72.00;;;;;;6216194;23;19911;-75
2024/01/06 05:30:08;;;;;;;;;;;15.10;72.20;;;;;;6216253;23;20030;-74
2024/01/06 05:32:33;;;;;;;;;;;15.00;70.30;;;;;;6215751;23;19904;-74
2024/01/06 05:34:58;;;;;;;;;;;15.00;72.40;;;;;;6214795;23;19904;-74
2024/01/06 05:37:24;;;;;;;;;;;15.10;72.20;;;;;;6215811;23;19904;-74
2024/01/06 05:39:49;;;;;;;;;;;15.00;72.30;;;;;;6215591;23;19958;-74
2024/01/06 05:42:15;;;;;;;;;;;15.10;72.50;;;;;;6215814;23;19903;-74
2024/01/06 05:44:41;;;;;;;;;;;15.10;72.50;;;;;;6214087;23;19904;-75
2024/01/06 05:47:08;;;;;;;;;;;15.10;72.00;;;;;;6215723;23;19904;-74
2024/01/06 05:49:33;;;;;;;;;;;15.00;72.10;;;;;;6215682;23;20282;-75
2024/01/06 05:51:59;;;;;;;;;;;15.10;72.20;;;;;;6215620;23;19908;-74
2024/01/06 05:54:25;;;;;;;;;;;15.00;72.10;;;;;;6215596;23;19904;-74
2024/01/06 05:56:50;;;;;;;;;;;15.00;71.80;;;;;;6215640;23;19958;-74
2024/01/06 05:59:16;;;;;;;;;;;15.10;72.40;;;;;;6215625;23;19904;-74
2024/01/06 06:01:41;;;;;;;;;;;15.00;72.10;;;;;;6215471;23;19938;-74
2024/01/06 06:04:07;;;;;;;;;;;14.90;71.80;;;;;;6216115;23;19904;-73
2024/01/06 06:06:32;;;;;;;;;;;15.00;72.40;;;;;;6215250;23;19912;-73
2024/01/06 06:08:58;;;;;;;;;;;15.00;72.60;;;;;;6215388;23;20011;-73
2024/01/06 06:11:23;;;;;;;;;;;14.90;72.40;;;;;;6215374;23;19911;-73
2024/01/06 06:13:49;;;;;;;;;;;15.00;72.60;;;;;;6215421;23;20339;-72
2024/01/06 06:16:14;;;;;;;;;;;15.00;72.50;;;;;;6215490;23;19904;-73
2024/01/06 06:18:40;;;;;;;;;;;15.00;72.60;;;;;;6215129;23;20251;-73
2024/01/06 06:21:09;;;;;;;;;;;15.00;72.40;;;;;;6215332;23;19911;-72
2024/01/06 06:23:35;;;;;;;;;;;14.90;67.60;;;;;;6215319;23;20320;-73
2024/01/06 06:26:04;;;;;;;;;;;15.00;72.70;;;;;;6215109;23;19912;-73
2024/01/06 06:28:30;;;;;;;;;;;15.00;67.70;;;;;;6215285;23;19938;-73
2024/01/06 06:30:55;;;;;;;;;;;14.90;72.80;;;;;;6215204;23;19904;-72
2024/01/06 06:33:21;;;;;;;;;;;15.20;72.90;;;;;;6215781;23;19932;-74
2024/01/06 06:35:46;;;;;;;;;;;15.00;73.10;;;;;;6215121;23;20315;-74
2024/01/06 06:38:12;;;;;;;;;;;15.00;72.70;;;;;;6215176;23;19908;-74
2024/01/06 06:40:37;;;;;;;;;;;14.90;72.90;;;;;;6215136;23;19978;-74
2024/01/06 06:43:03;;;;;;;;;;;15.00;72.80;;;;;;6215175;23;19904;-73
2024/01/06 06:45:28;;;;;;;;;;;14.90;72.30;;;;;;6215151;23;19916;-73
2024/01/06 06:47:54;;;;;;;;;;;14.90;73.00;;;;;;6214992;23;19928;-73
2024/01/06 06:50:20;;;;;;;;;;;14.90;73.00;;;;;;6214726;23;19974;-73
2024/01/06 06:52:46;;;;;;;;;;;14.90;72.90;;;;;;6215020;23;20051;-73
2024/01/06 06:55:12;;;;;;;;;;;14.90;73.00;;;;;;6215026;23;19936;-73
2024/01/06 06:57:38;;;;;;;;;;;14.90;73.10;;;;;;6214977;23;19904;-73
2024/01/06 07:00:04;;;;;;;;;;;15.20;73.40;;;;;;6215488;23;19927;-73
2024/01/06 07:02:29;;;;;;;;;;;15.00;73.10;;;;;;6214874;23;19904;-73
2024/01/06 07:04:55;;;;;;;;;;;14.90;73.50;;;;;;6215343;23;19908;-72
2024/01/06 07:07:21;;;;;;;;;;;15.00;73.30;;;;;;6214958;23;19904;-73
2024/01/06 07:09:46;;;;;;;;;;;14.90;73.50;;;;;;6214914;23;19962;-72
2024/01/06 07:12:12;;;;;;;;;;;14.80;73.70;;;;;;6214909;23;19910;-73
2024/01/06 07:14:37;;;;;;;;;;;14.90;73.80;;;;;;6214916;23;19911;-73
2024/01/06 07:17:03;;;;;;;;;;;15.10;73.80;;;;;;6213234;23;19910;-72
2024/01/06 07:19:31;;;;;;;;;;;15.00;72.70;;;;;;6214640;23;19923;-73
2024/01/06 07:21:56;;;;;;;;;;;14.90;73.80;;;;;;6214941;23;19973;-73
2024/01/06 07:24:21;;;;;;;;;;;14.90;73.90;;;;;;6214691;23;20367;-73
2024/01/06 07:26:47;;;;;;;;;;;15.00;73.90;;;;;;6212999;23;19912;-73
2024/01/06 07:29:12;;;;;;;;;;;14.90;73.60;;;;;;6215191;23;20316;-73
2024/01/06 07:31:38;;;;;;;;;;;15.00;74.10;;;;;;6214692;23;19954;-73
2024/01/06 07:34:04;;;;;;;;;;;14.90;73.90;;;;;;6214846;23;19907;-72
2024/01/06 07:36:29;;;;;;;;;;;14.90;73.80;;;;;;6214722;23;19973;-79
2024/01/06 07:38:55;;;;;;;;;;;15.00;73.60;;;;;;6214641;23;19904;-75
2024/01/06 07:41:21;;;;;;;;;;;14.90;73.80;;;;;;6214689;23;19911;-73
2024/01/06 07:43:46;;;;;;;;;;;15.00;74.00;;;;;;6214705;23;19908;-76
2024/01/06 07:46:12;;;;;;;;;;;15.00;73.70;;;;;;6214518;23;19966;-74
2024/01/06 07:48:37;;;;;;;;;;;15.00;73.50;;;;;;6213239;23;20354;-73
2024/01/06 07:51:03;;;;;;;;;;;15.10;73.80;;;;;;6215227;23;19932;-74
2024/01/06 07:53:29;;;;;;;;;;;15.00;72.70;;;;;;6214624;23;20350;-73
2024/01/06 07:55:54;;;;;;;;;;;15.10;73.50;;;;;;6214591;23;19904;-73
2024/01/06 07:58:21;;;;;;;;;;;15.10;73.40;;;;;;6214670;23;19911;-73
2024/01/06 08:00:47;;;;;;;;;;;15.00;73.50;;;;;;6214745;23;19982;-74
2024/01/06 08:03:12;;;;;;;;;;;15.00;73.10;;;;;;6214387;23;19908;-72
2024/01/06 08:05:38;;;;;;;;;;;15.00;73.50;;;;;;6217085;23;19969;-73
2024/01/06 08:08:04;;;;;;;;;;;15.00;73.80;;;;;;6216513;23;19904;-74
2024/01/06 08:10:29;;;;;;;;;;;14.90;72.40;;;;;;6216437;23;19951;-73
2024/01/06 08:12:55;;;;;;;;;;;15.00;73.60;;;;;;6216532;23;19904;-77
2024/01/06 08:15:20;;;;;;;;;;;15.00;73.60;;;;;;6216995;23;19958;-72
2024/01/06 08:17:46;;;;;;;;;;;15.00;73.70;;;;;;6216600;23;19915;-74
2024/01/06 08:20:12;;;;;;;;;;;14.90;73.40;;;;;;6216599;23;19915;-73
2024/01/06 08:22:38;;;;;;;;;;;15.00;73.50;;;;;;6216956;23;19975;-75
2024/01/06 08:25:06;;;;;;;;;;;14.80;73.50;;;;;;6215107;23;20316;-74
2024/01/06 08:27:32;;;;;;;;;;;14.90;73.10;;;;;;6216651;23;19904;-74
2024/01/06 08:29:58;;;;;;;;;;;15.00;73.70;;;;;;6216781;23;19914;-74
2024/01/06 08:32:24;;;;;;;;;;;14.90;73.40;;;;;;6216934;23;19958;-74
2024/01/06 08:34:49;;;;;;;;;;;15.00;73.50;;;;;;6214734;23;20310;-73
2024/01/06 08:37:14;;;;;;;;;;;15.20;73.60;;;;;;6216203;23;19910;-73
2024/01/06 08:39:41;;;;;;;;;;;15.00;73.40;;;;;;6216361;23;19958;-74
2024/01/06 08:42:06;;;;;;;;;;;14.80;73.20;;;;;;6216239;23;19935;-86
2024/01/06 08:44:32;;;;;;;;;;;15.00;73.20;;;;;;6216715;23;19962;-73
2024/01/06 08:46:57;;;;;;;;;;;15.00;73.50;;;;;;6216334;23;19911;-74
2024/01/06 08:49:23;;;;;;;;;;;15.00;73.20;;;;;;6216007;23;19904;-74
2024/01/06 08:51:48;;;;;;;;;;;15.00;73.10;;;;;;6216206;23;19904;-74
2024/01/06 08:54:14;;;;;;;;;;;15.00;73.30;;;;;;6215958;23;19904;-74
2024/01/06 08:56:39;;;;;;;;;;;14.90;73.40;;;;;;6214661;23;19910;-73
2024/01/06 08:59:05;;;;;;;;;;;15.00;73.20;;;;;;6216034;23;19904;-74
2024/01/06 09:01:31;;;;;;;;;;;15.00;73.00;;;;;;6216107;23;19904;-74
2024/01/06 09:03:57;;;;;;;;;;;15.00;73.60;;;;;;6216688;23;20235;-74
2024/01/06 09:06:23;;;;;;;;;;;15.10;73.60;;;;;;6215645;23;20342;-74
2024/01/06 09:08:49;;;;;;;;;;;14.90;73.50;;;;;;6215070;23;19936;-74
2024/01/06 09:11:14;;;;;;;;;;;14.90;73.40;;;;;;6212801;23;19912;-74
2024/01/06 09:13:41;;;;;;;;;;;15.00;73.30;;;;;;6188708;23;19911;-74
2024/01/06 09:16:06;;;;;;;;;;;14.80;73.60;;;;;;6214343;23;19915;-74
2024/01/06 09:18:32;;;;;;;;;;;14.90;73.40;;;;;;6213948;23;19924;-74
2024/01/06 09:20:57;;;;;;;;;;;14.90;73.10;;;;;;6214241;23;20344;-74
2024/01/06 09:23:23;;;;;;;;;;;15.10;73.10;;;;;;6215801;23;19904;-74
2024/01/06 09:25:50;;;;;;;;;;;14.90;73.10;;;;;;6215848;23;19947;-75
2024/01/06 09:28:16;;;;;;;;;;;14.90;73.10;;;;;;6215757;23;20335;-75
2024/01/06 09:30:41;;;;;;;;;;;14.90;72.60;;;;;;6216297;23;19904;-71
2024/01/06 09:33:08;;;;;;;;;;;14.90;73.00;;;;;;6215715;23;19908;-72
2024/01/06 09:35:33;;;;;;;;;;;14.90;73.20;;;;;;6218942;23;19910;-72
2024/01/06 09:37:59;;;;;;;;;;;14.90;72.90;;;;;;6216192;23;19904;-71
2024/01/06 09:40:25;;;;;;;;;;;14.90;72.80;;;;;;6216304;23;20240;-73
2024/01/06 09:42:51;;;;;;;;;;;14.90;72.80;;;;;;6215684;23;20035;-73
2024/01/06 09:45:16;;;;;;;;;;;14.90;72.40;;;;;;6215618;23;19919;-72
2024/01/06 09:47:42;;;;;;;;;;;14.80;72.80;;;;;;6215564;23;19914;-72
2024/01/06 09:50:09;;;;;;;;;;;14.90;72.80;;;;;;6215631;23;19907;-72
2024/01/06 09:52:39;;;;;;;;;;;15.00;72.50;;;;;;6216045;23;19958;-71
2024/01/06 09:55:05;;;;;;;;;;;14.80;72.60;;;;;;6215404;23;19931;-72
2024/01/06 09:57:31;;;;;;;;;;;15.00;71.30;;;;;;6215455;23;19940;-72
2024/01/06 09:59:57;;;;;;;;;;;14.90;72.80;;;;;;6216043;23;19904;-75
2024/01/06 10:02:24;;;;;;;;;;;14.80;72.40;;;;;;6215415;23;19908;-76
2024/01/06 10:04:49;;;;;;;;;;;14.80;72.40;;;;;;6215386;23;19911;-75
2024/01/06 10:07:15;;;;;;;;;;;14.90;72.50;;;;;;6215335;23;20235;-75
2024/01/06 10:09:41;;;;;;;;;;;14.80;72.70;;;;;;6215402;23;19950;-72
2024/01/06 10:12:10;;;;;;;;;;;14.60;72.10;;;;;;6216016;23;20232;-71
2024/01/06 10:14:35;;;;;;;;;;;14.90;71.30;;;;;;6225368;23;19904;-71
2024/01/06 10:17:01;;;;;;;;;;;14.90;72.20;;;;;;6215291;23;20338;-71
2024/01/06 10:19:26;;;;;;;;;;;14.80;72.30;;;;;;6213488;23;20242;-72
2024/01/06 10:21:52;;;;;;;;;;;14.90;72.30;;;;;;6215236;23;19935;-72
2024/01/06 10:24:18;;;;;;;;;;;14.80;72.10;;;;;;6215197;23;19931;-72
2024/01/06 10:26:47;;;;;;;;;;;14.80;71.70;;;;;;6214665;23;19912;-72
2024/01/06 10:29:15;;;;;;;;;;;14.90;71.80;;;;;;6216005;23;19915;-72
2024/01/06 10:31:41;;;;;;;;;;;14.70;67.00;;;;;;6215698;23;20027;-72
2024/01/06 10:34:06;;;;;;;;;;;14.90;72.10;;;;;;6214960;23;20379;-72
2024/01/06 10:36:32;;;;;;;;;;;14.80;72.00;;;;;;6215174;23;19904;-72
2024/01/06 10:38:58;;;;;;;;;;;14.70;71.90;;;;;;6215443;23;19930;-74
2024/01/06 10:41:24;;;;;;;;;;;14.90;72.00;;;;;;6213481;23;19911;-74
2024/01/06 10:43:50;;;;;;;;;;;14.80;72.00;;;;;;6215598;23;19904;-74
2024/01/06 10:46:18;;;;;;;;;;;14.80;72.30;;;;;;6214970;23;19911;-74
2024/01/06 10:48:45;;;;;;;;;;;14.80;72.60;;;;;;6213184;23;20316;-74
2024/01/06 10:51:11;;;;;;;;;;;14.80;72.50;;;;;;6215046;23;19911;-74
2024/01/06 10:53:39;;;;;;;;;;;14.80;72.30;;;;;;6214852;23;19926;-74
2024/01/06 10:56:07;;;;;;;;;;;14.80;72.20;;;;;;6215457;23;19904;-72
2024/01/06 10:58:37;;;;;;;;;;;14.70;71.40;;;;;;6214876;23;19911;-71
2024/01/06 11:01:03;;;;;;;;;;;14.80;72.30;;;;;;6215003;23;19935;-72
2024/01/06 11:03:29;;;;;;;;;;;14.80;72.00;;;;;;6214766;23;19915;-71
2024/01/06 11:05:54;;;;;;;;;;;14.80;72.50;;;;;;6214686;23;19935;-71
2024/01/06 11:08:21;;;;;;;;;;;14.80;71.60;;;;;;6214789;23;19979;-71
2024/01/06 11:10:47;;;;;;;;;;;14.80;72.00;;;;;;6214955;23;19908;-72
2024/01/06 11:13:13;;;;;;;;;;;14.80;71.80;;;;;;6214649;23;19927;-72
2024/01/06 11:15:46;;;;;;;;;;;14.40;72.00;;;;;;6214846;23;19904;-72
2024/01/06 11:18:34;;;;;;;;;;;14.70;66.80;;;;;;6214546;23;19908;-72
2024/01/06 11:21:17;;;;;;;;;;;14.70;66.70;;;;;;6214879;23;19962;-73
2024/01/06 11:23:42;;;;;;;;;;;14.70;66.90;;;;;;6224785;23;19904;-73
2024/01/06 11:26:08;;;;;;;;;;;14.70;71.60;;;;;;6225167;23;19923;-76
2024/01/06 11:28:44;;;;;;;;;;;15.00;71.80;;;;;;6215001;23;19904;-76
2024/01/06 11:31:10;;;;;;;;;;;14.70;67.10;;;;;;6214816;23;19904;-76
2024/01/06 11:33:49;;;;;;;;;;;14.70;71.70;;;;;;6215349;23;19904;-77
2024/01/06 11:36:19;;;;;;;;;;;14.60;66.80;;;;;;6213052;23;19931;-74
2024/01/06 11:38:50;;;;;;;;;;;14.70;71.90;;;;;;6213133;23;19904;-73
2024/01/06 11:41:38;;;;;;;;;;;14.60;72.10;;;;;;6224707;23;20213;-74
2024/01/06 11:44:04;;;;;;;;;;;14.70;66.80;;;;;;6214403;23;19958;-74
2024/01/06 11:46:29;;;;;;;;;;;14.60;71.90;;;;;;6214486;23;19916;-75
2024/01/06 11:48:55;;;;;;;;;;;14.60;71.70;;;;;;6214598;23;19904;-72
2024/01/06 11:51:21;;;;;;;;;;;14.60;71.80;;;;;;6214568;23;19904;-72
2024/01/06 11:53:47;;;;;;;;;;;14.50;71.80;;;;;;6214725;23;20220;-75
2024/01/06 11:56:12;;;;;;;;;;;14.60;71.80;;;;;;6214922;23;19911;-74
2024/01/06 11:58:41;;;;;;;;;;;14.60;71.80;;;;;;6214653;23;19908;-74
2024/01/06 12:01:06;;;;;;;;;;;14.60;66.70;;;;;;6213004;23;19908;-74
2024/01/06 12:03:32;;;;;;;;;;;14.60;71.50;;;;;;6214442;23;19903;-74
2024/01/06 12:06:02;;;;;;;;;;;14.60;71.80;;;;;;6214409;23;19957;-75
2024/01/06 12:08:28;;;;;;;;;;;14.60;66.90;;;;;;6212804;23;19904;-74
2024/01/06 12:11:03;;;;;;;;;;;14.50;71.70;;;;;;6214527;23;20286;-74
2024/01/06 12:13:29;;;;;;;;;;;14.70;66.90;;;;;;6215628;23;20231;-75
2024/01/06 12:15:56;;;;;;;;;;;14.60;71.10;;;;;;6214681;23;19979;-72
2024/01/06 12:18:22;;;;;;;;;;;14.50;71.60;;;;;;6214126;23;19988;-75
2024/01/06 12:20:47;;;;;;;;;;;14.50;71.70;;;;;;6224857;23;19911;-74
2024/01/06 12:23:23;;;;;;;;;;;14.50;72.00;;;;;;6214482;23;20334;-75
2024/01/06 12:25:49;;;;;;;;;;;14.50;71.90;;;;;;6224405;23;19916;-74
2024/01/06 12:28:15;;;;;;;;;;;14.50;71.60;;;;;;6214549;23;19904;-75
2024/01/06 12:30:41;;;;;;;;;;;14.50;71.50;;;;;;6214961;23;19930;-74
2024/01/06 12:33:07;;;;;;;;;;;14.50;72.00;;;;;;6214934;23;20216;-74
2024/01/06 12:35:34;;;;;;;;;;;14.50;71.80;;;;;;6214583;23;19911;-75
2024/01/06 12:38:01;;;;;;;;;;;14.50;71.80;;;;;;6214910;23;19904;-75
2024/01/06 12:40:28;;;;;;;;;;;14.50;71.80;;;;;;6215044;23;19911;-74
2024/01/06 12:42:53;;;;;;;;;;;14.40;72.10;;;;;;6214935;23;19987;-75
2024/01/06 12:45:19;;;;;;;;;;;14.40;72.00;;;;;;6214167;23;19943;-74
2024/01/06 12:47:44;;;;;;;;;;;14.50;71.60;;;;;;6214335;23;19904;-74
2024/01/06 12:50:10;;;;;;;;;;;14.40;71.90;;;;;;6215596;23;20239;-74
2024/01/06 12:52:37;;;;;;;;;;;14.40;71.70;;;;;;6216143;23;19904;-76
2024/01/06 12:55:04;;;;;;;;;;;14.40;71.80;;;;;;6216561;23;19911;-74
2024/01/06 12:57:29;;;;;;;;;;;14.40;70.40;;;;;;6216304;23;19903;-75
2024/01/06 12:59:55;;;;;;;;;;;14.40;71.40;;;;;;6215975;23;19908;-74
2024/01/06 13:02:21;;;;;;;;;;;13.90;71.30;;;;;;6215963;23;19904;-75
2024/01/06 13:04:46;;;;;;;;;;;14.40;71.00;;;;;;6215898;23;19908;-74
2024/01/06 13:07:12;;;;;;;;;;;14.50;72.10;;;;;;6215951;23;19994;-74
2024/01/06 13:09:38;;;;;;;;;;;14.40;71.40;;;;;;6216769;23;20320;-72
2024/01/06 13:12:05;;;;;;;;;;;14.40;72.00;;;;;;6214698;23;19954;-71
2024/01/06 13:14:31;;;;;;;;;;;14.40;69.80;;;;;;6216418;23;19904;-71
2024/01/06 13:16:57;;;;;;;;;;;14.30;71.60;;;;;;6216066;23;19910;-71
2024/01/06 13:19:23;;;;;;;;;;;14.30;71.90;;;;;;6215942;23;19986;-72
2024/01/06 13:21:49;;;;;;;;;;;14.50;71.80;;;;;;6216444;23;20274;-71
2024/01/06 13:24:15;;;;;;;;;;;14.40;71.90;;;;;;6215963;23;19908;-72
2024/01/06 13:26:41;;;;;;;;;;;14.30;71.40;;;;;;6215871;23;19997;-72
2024/01/06 13:29:07;;;;;;;;;;;14.40;71.60;;;;;;6216307;23;19904;-71
2024/01/06 13:31:33;;;;;;;;;;;14.30;71.80;;;;;;6216128;23;19966;-71
2024/01/06 13:33:59;;;;;;;;;;;14.30;71.90;;;;;;6216293;23;19931;-71
2024/01/06 13:36:25;;;;;;;;;;;14.30;71.60;;;;;;6216337;23;19904;-72
2024/01/06 13:38:50;;;;;;;;;;;14.30;71.50;;;;;;6216130;23;20236;-74
2024/01/06 13:41:16;;;;;;;;;;;14.30;71.40;;;;;;6215603;23;19904;-75
2024/01/06 13:43:42;;;;;;;;;;;14.30;71.40;;;;;;6215496;23;20316;-74
2024/01/06 13:46:07;;;;;;;;;;;14.30;71.60;;;;;;6215513;23;20003;-75
2024/01/06 13:48:33;;;;;;;;;;;14.30;71.60;;;;;;6215506;23;19904;-73
2024/01/06 13:50:59;;;;;;;;;;;14.30;71.50;;;;;;6215903;23;20026;-73
2024/01/06 13:53:25;;;;;;;;;;;14.20;71.40;;;;;;6215628;23;19910;-73
2024/01/06 13:55:51;;;;;;;;;;;14.30;71.40;;;;;;6215994;23;19904;-73
2024/01/06 13:58:17;;;;;;;;;;;14.20;71.60;;;;;;6216101;23;19904;-74
2024/01/06 14:00:43;;;;;;;;;;;14.10;72.00;;;;;;6213736;23;20335;-73
2024/01/06 14:03:08;;;;;;;;;;;14.20;71.10;;;;;;6215295;23;19908;-72
2024/01/06 14:05:34;;;;;;;;;;;14.00;71.10;;;;;;6216484;23;19912;-74
2024/01/06 14:08:01;;;;;;;;;;;14.30;71.20;;;;;;6215831;23;19910;-74
2024/01/06 14:10:27;;;;;;;;;;;14.10;71.10;;;;;;6215528;23;20365;-74